createdAt,value
2022-11-10T00:02:07.338Z,38.73
2022-11-10T00:07:28.976Z,38.40
2022-11-10T00:12:49.984Z,32.60
2022-11-10T00:18:10.810Z,32.83
2022-11-10T00:23:32.076Z,30.83
2022-11-10T00:28:53.081Z,33.20
2022-11-10T00:34:16.480Z,30.37
2022-11-10T00:39:37.490Z,28.40
2022-11-10T00:44:58.276Z,26.33
2022-11-10T00:50:22.220Z,29.93
2022-11-10T00:55:43.390Z,27.37
2022-11-10T01:01:05.566Z,29.70
2022-11-10T01:06:26.786Z,28.80
2022-11-10T01:11:47.531Z,28.77
2022-11-10T01:17:08.566Z,26.87
2022-11-10T01:22:30.165Z,28.20
2022-11-10T01:27:51.587Z,28.50
2022-11-10T01:33:12.799Z,26.77
2022-11-10T01:38:36.374Z,25.97
2022-11-10T01:44:21.587Z,25.77
2022-11-10T01:49:42.406Z,26.60
2022-11-10T01:55:03.502Z,27.17
2022-11-10T02:00:24.714Z,25.87
2022-11-10T02:05:45.673Z,26.40
2022-11-10T02:11:06.665Z,25.53
2022-11-10T02:16:28.003Z,24.90
2022-11-10T02:21:48.683Z,25.77
2022-11-10T02:27:09.687Z,24.60
2022-11-10T02:32:30.657Z,23.60
2022-11-10T02:37:51.474Z,25.13
2022-11-10T02:43:14.752Z,24.20
2022-11-10T02:48:35.482Z,24.30
2022-11-10T02:53:56.310Z,25.93
2022-11-10T02:59:17.306Z,26.30
2022-11-10T03:04:38.188Z,25.23
2022-11-10T03:09:59.186Z,23.90
2022-11-10T03:15:20.166Z,23.90
2022-11-10T03:20:41.254Z,25.03
2022-11-10T03:26:07.735Z,24.40
2022-11-10T03:31:29.044Z,23.70
2022-11-10T03:36:49.951Z,22.73
2022-11-10T03:42:11.022Z,24.47
2022-11-10T03:47:31.855Z,26.63
2022-11-10T03:52:52.734Z,24.20
2022-11-10T03:58:13.786Z,24.23
2022-11-10T04:03:34.610Z,26.07
2022-11-10T04:09:01.328Z,25.37
2022-11-10T04:14:40.366Z,23.53
2022-11-10T04:20:03.356Z,24.67
2022-11-10T04:25:24.286Z,21.77
2022-11-10T04:30:45.236Z,25.77
2022-11-10T04:36:07.630Z,24.87
2022-11-10T04:41:32.405Z,30.37
2022-11-10T04:46:52.968Z,23.10
2022-11-10T04:52:13.822Z,21.77
2022-11-10T04:57:34.698Z,21.07
2022-11-10T05:02:55.806Z,21.80
2022-11-10T05:08:16.731Z,21.10
2022-11-10T05:13:38.213Z,20.17
2022-11-10T05:18:59.279Z,21.60
2022-11-10T05:24:20.120Z,20.70
2022-11-10T05:29:41.054Z,20.83
2022-11-10T05:35:02.031Z,19.70
2022-11-10T05:40:23.060Z,20.13
2022-11-10T05:45:43.958Z,19.07
2022-11-10T05:51:05.305Z,20.40
2022-11-10T05:56:25.979Z,19.70
2022-11-10T06:01:46.860Z,21.60
2022-11-10T06:07:12.031Z,23.13
2022-11-10T06:12:32.953Z,21.73
2022-11-10T06:17:54.396Z,22.33
2022-11-10T06:23:15.731Z,21.77
2022-11-10T06:28:36.423Z,19.83
2022-11-10T06:33:57.201Z,21.20
2022-11-10T06:39:18.239Z,20.10
2022-11-10T06:44:38.738Z,18.60
2022-11-10T06:49:59.516Z,19.57
2022-11-10T06:55:20.592Z,18.77
2022-11-10T07:00:41.529Z,18.10
2022-11-10T07:06:02.536Z,24.80
2022-11-10T07:11:23.667Z,22.23
2022-11-10T07:16:44.856Z,32.93
2022-11-10T07:22:10.784Z,21.93
2022-11-10T07:27:32.433Z,21.23
2022-11-10T07:32:59.772Z,18.43
2022-11-10T07:38:21.004Z,17.70
2022-11-10T07:43:41.767Z,17.00
2022-11-10T07:49:02.807Z,15.37
2022-11-10T07:54:24.014Z,14.13
2022-11-10T07:59:44.949Z,15.23
2022-11-10T08:05:06.427Z,12.30
2022-11-10T08:10:31.614Z,10.93
2022-11-10T08:15:52.658Z,11.83
2022-11-10T08:21:13.502Z,13.13
2022-11-10T08:26:34.636Z,12.80
2022-11-10T08:31:55.263Z,13.60
2022-11-10T08:37:16.261Z,12.50
2022-11-10T08:42:37.065Z,13.57
2022-11-10T08:48:00.089Z,12.07
2022-11-10T08:53:23.977Z,10.77
2022-11-10T08:58:51.898Z,10.83
2022-11-10T09:04:15.889Z,10.33
2022-11-10T09:09:36.899Z,10.40
2022-11-10T09:14:57.808Z,10.40
2022-11-10T09:20:19.081Z,8.83
2022-11-10T09:25:40.675Z,8.03
2022-11-10T09:31:01.825Z,7.90
2022-11-10T09:36:22.902Z,7.03
2022-11-10T09:41:44.683Z,6.57
2022-11-10T09:47:55.471Z,7.77
2022-11-10T09:53:06.106Z,6.30
2022-11-10T09:58:40.911Z,6.40
2022-11-10T10:04:09.885Z,6.50
2022-11-10T10:10:05.020Z,6.43
2022-11-10T10:15:40.223Z,6.20
2022-11-10T10:21:27.000Z,5.53
2022-11-10T10:26:56.831Z,5.60
2022-11-10T10:32:18.683Z,5.80
2022-11-10T10:37:53.819Z,4.57
2022-11-10T10:43:14.673Z,5.67
2022-11-10T10:48:36.082Z,4.90
2022-11-10T10:53:57.410Z,6.83
2022-11-10T10:59:22.627Z,4.87
2022-11-10T11:04:43.500Z,4.10
2022-11-10T11:10:18.768Z,4.20
2022-11-10T11:15:39.636Z,4.20
2022-11-10T11:21:33.630Z,3.50
2022-11-10T11:27:11.126Z,3.70
2022-11-10T11:33:09.672Z,4.07
2022-11-10T11:38:41.007Z,4.50
2022-11-10T11:44:26.616Z,4.60
2022-11-10T11:49:58.891Z,4.13
2022-11-10T11:55:34.686Z,4.37
2022-11-10T12:01:08.441Z,4.03
2022-11-10T12:06:34.951Z,3.27
2022-11-10T12:12:07.276Z,4.47
2022-11-10T12:17:47.464Z,3.87
2022-11-10T12:23:44.498Z,4.30
2022-11-10T12:29:32.765Z,4.00
2022-11-10T12:34:59.162Z,3.40
2022-11-10T12:40:27.528Z,19.90
2022-11-10T12:46:07.457Z,18.27
2022-11-10T12:52:28.612Z,6.20
2022-11-10T12:57:51.908Z,4.60
2022-11-10T13:03:26.371Z,4.67
2022-11-10T13:08:49.819Z,5.70
2022-11-10T13:14:24.593Z,4.33
2022-11-10T13:19:50.350Z,5.30
2022-11-10T13:25:36.465Z,5.77
2022-11-10T13:30:57.171Z,14.97
2022-11-10T13:36:39.309Z,23.23
2022-11-10T13:42:07.887Z,36.83
2022-11-10T13:47:37.433Z,16.40
2022-11-10T13:53:19.811Z,80.17
2022-11-10T13:58:44.503Z,12.13
2022-11-10T14:04:05.644Z,8.43
2022-11-10T14:09:39.929Z,14.40
2022-11-10T14:15:12.272Z,16.67
2022-11-10T14:20:41.042Z,22.30
2022-11-10T14:26:13.186Z,7.50
2022-11-10T14:31:36.149Z,7.70
2022-11-10T14:36:59.752Z,7.87
2022-11-10T14:42:24.462Z,7.10
2022-11-10T14:47:56.734Z,7.87
2022-11-10T14:53:37.375Z,24.30
2022-11-10T14:59:01.356Z,35.90
2022-11-10T15:04:33.340Z,74.47
2022-11-10T15:10:28.145Z,20.67
2022-11-10T15:15:49.088Z,20.40
2022-11-10T15:21:12.760Z,26.00
2022-11-10T15:26:39.740Z,19.57
2022-11-10T15:32:01.118Z,17.27
2022-11-10T15:37:29.087Z,17.63
2022-11-10T15:43:20.125Z,25.83
2022-11-10T15:48:45.859Z,30.73
2022-11-10T15:54:10.599Z,30.67
2022-11-10T15:59:31.087Z,29.57
2022-11-10T16:05:00.144Z,44.90
2022-11-10T16:10:22.631Z,40.00
2022-11-10T16:15:45.334Z,32.60
2022-11-10T16:21:06.305Z,62.60
2022-11-10T16:26:27.586Z,23.50
2022-11-10T16:31:49.516Z,34.50
2022-11-10T16:37:12.761Z,26.57
2022-11-10T16:42:33.653Z,26.33
2022-11-10T16:47:54.762Z,21.07
2022-11-10T16:53:18.028Z,18.57
2022-11-10T16:58:38.730Z,18.57
2022-11-10T17:04:02.447Z,27.60
2022-11-10T17:09:28.030Z,37.53
2022-11-10T17:14:48.626Z,35.10
2022-11-10T17:20:20.295Z,59.73
2022-11-10T17:25:41.997Z,56.03
2022-11-10T17:31:03.485Z,53.87
2022-11-10T17:36:24.509Z,46.33
2022-11-10T17:41:45.226Z,43.93
2022-11-10T17:47:06.034Z,52.50
2022-11-10T17:52:26.968Z,50.70
2022-11-10T17:57:48.611Z,52.07
2022-11-10T18:03:15.607Z,51.40
2022-11-10T18:08:37.625Z,42.97
2022-11-10T18:14:00.500Z,42.47
2022-11-10T18:19:21.306Z,61.33
2022-11-10T18:24:42.728Z,50.23
2022-11-10T18:30:05.274Z,29.83
2022-11-10T18:35:26.130Z,35.80
2022-11-10T18:40:46.774Z,34.97
2022-11-10T18:46:07.645Z,33.10
2022-11-10T18:51:28.594Z,34.93
2022-11-10T18:56:50.011Z,42.17
2022-11-10T19:02:14.117Z,54.03
2022-11-10T19:07:35.031Z,41.10
2022-11-10T19:12:56.194Z,33.53
2022-11-10T19:18:16.810Z,28.67
2022-11-10T19:23:37.983Z,28.37
2022-11-10T19:28:59.308Z,32.00
2022-11-10T19:34:19.941Z,24.10
2022-11-10T19:39:40.988Z,22.87
2022-11-10T19:45:02.379Z,27.53
2022-11-10T19:50:23.342Z,28.30
2022-11-10T19:55:44.260Z,42.00
2022-11-10T20:01:06.746Z,36.23
2022-11-10T20:06:27.812Z,28.10
2022-11-10T20:11:48.646Z,28.23
2022-11-10T20:17:09.674Z,31.27
2022-11-10T20:22:30.503Z,21.17
2022-11-10T20:27:52.843Z,17.93
2022-11-10T20:33:13.766Z,19.70
2022-11-10T20:38:35.046Z,18.57
2022-11-10T20:43:55.817Z,14.50
2022-11-10T20:49:16.479Z,18.77
2022-11-10T20:54:37.395Z,18.23
2022-11-10T20:59:58.314Z,15.60
2022-11-10T21:05:19.214Z,15.40
2022-11-10T21:10:40.213Z,14.57
2022-11-10T21:16:03.783Z,13.53
2022-11-10T21:21:34.040Z,14.20
2022-11-10T21:26:55.516Z,14.00
2022-11-10T21:32:16.163Z,14.20
2022-11-10T21:37:37.168Z,12.17
2022-11-10T21:42:58.395Z,12.43
2022-11-10T21:48:19.399Z,10.50
2022-11-10T21:53:41.867Z,11.73
2022-11-10T21:59:02.906Z,15.23
2022-11-10T22:04:23.766Z,12.37
2022-11-10T22:10:02.955Z,11.10
2022-11-10T22:15:42.470Z,13.27
2022-11-10T22:21:04.740Z,18.93
2022-11-10T22:26:25.716Z,22.90
2022-11-10T22:31:46.488Z,21.03
2022-11-10T22:37:07.428Z,20.97
2022-11-10T22:42:46.862Z,22.53
2022-11-10T22:48:25.908Z,18.07
2022-11-10T22:53:46.697Z,15.20
2022-11-10T22:59:08.361Z,15.80
2022-11-10T23:04:29.310Z,11.53
2022-11-10T23:09:50.326Z,10.67
2022-11-10T23:15:11.369Z,10.53
2022-11-10T23:20:32.245Z,12.67
2022-11-10T23:26:00.968Z,11.57
2022-11-10T23:31:24.763Z,11.50
2022-11-10T23:36:45.662Z,11.30
2022-11-10T23:42:06.491Z,10.60
2022-11-10T23:47:27.261Z,10.83
2022-11-10T23:52:48.396Z,10.27
2022-11-10T23:58:09.214Z,10.37
